Time;durP1;ratioP1;P1;durP2;ratioP2;P2;SDS_P1;SDS_P2;PMS_P1;PMS_P2;Temp;Humidity;BMP_temperature;BMP_pressure;BME280_temperature;BME280_humidity;BME280_pressure;Samples;Min_cycle;Max_cycle;Signal;HPM_P1;HPM_P2
2021/12/17 00:07:00;;;;;;;4.60;1.90;;;23.60;51.80;;;;;;213585;1318;25511;-55
2021/12/17 00:12:09;;;;;;;4.70;2.20;;;23.70;52.00;;;;;;214919;1315;22669;-55
2021/12/17 00:17:19;;;;;;;4.10;2.20;;;23.70;51.80;;;;;;214831;1313;24208;-50
2021/12/17 00:49:30;;;;;;;5.10;1.70;;;23.60;52.00;;;;;;214308;1312;23284;-53
2021/12/17 00:54:40;;;;;;;4.60;2.20;;;23.70;52.00;;;;;;213974;1312;24248;-56
2021/12/17 00:59:53;;;;;;;5.90;2.10;;;23.70;52.50;;;;;;213785;1313;26784;-53
2021/12/17 01:05:01;;;;;;;5.50;2.20;;;23.70;53.10;;;;;;214038;1312;208135;-52
2021/12/17 01:10:14;;;;;;;7.10;1.90;;;23.70;52.50;;;;;;213839;1318;22621;-51
2021/12/17 01:15:28;;;;;;;5.00;2.00;;;23.60;52.40;;;;;;214721;1317;23348;-54
2021/12/17 01:42:33;;;;;;;7.00;2.00;;;23.70;51.80;;;;;;214395;1315;22565;-51
2021/12/17 01:47:37;;;;;;;4.60;2.10;;;23.80;51.70;;;;;;214469;1309;24368;-54
2021/12/17 02:03:41;;;;;;;3.30;1.70;;;23.70;51.90;;;;;;214059;1316;22578;-50
2021/12/17 02:08:46;;;;;;;4.70;2.20;;;23.70;51.60;;;;;;214423;1316;24276;-50
2021/12/17 02:20:23;;;;;;;3.50;2.00;;;23.60;51.50;;;;;;214104;1316;24340;-53
2021/12/17 02:31:09;;;;;;;4.10;2.20;;;23.70;51.40;;;;;;214119;1315;22651;-52
2021/12/17 02:36:00;;;;;;;5.40;2.30;;;23.70;51.40;;;;;;214404;1315;24392;-51
2021/12/17 02:46:48;;;;;;;3.90;2.00;;;23.80;51.10;;;;;;214315;1316;22574;-51
2021/12/17 02:51:52;;;;;;;2.90;1.60;;;23.80;51.00;;;;;;214336;1315;24877;-52
2021/12/17 02:56:56;;;;;;;4.10;1.80;;;23.80;51.10;;;;;;214402;1315;22562;-52
2021/12/17 03:02:02;;;;;;;4.00;2.00;;;23.70;51.10;;;;;;214502;1315;23161;-51
2021/12/17 03:07:09;;;;;;;3.60;1.90;;;23.70;51.20;;;;;;214313;1315;26089;-52
2021/12/17 03:12:20;;;;;;;4.50;1.90;;;23.70;51.20;;;;;;214401;1316;22567;-52
2021/12/17 03:17:50;;;;;;;4.70;1.80;;;23.60;51.10;;;;;;214086;1315;22587;-54
2021/12/17 03:28:09;;;;;;;5.00;2.00;;;23.60;51.30;;;;;;214379;1314;23762;-54
2021/12/17 03:33:13;;;;;;;4.20;1.70;;;23.60;51.00;;;;;;214209;1313;25315;-52
2021/12/17 03:38:17;;;;;;;3.80;2.10;;;23.60;51.40;;;;;;214502;1315;23406;-52
2021/12/17 03:43:24;;;;;;;4.90;1.60;;;23.60;51.00;;;;;;214358;1315;25450;-53
2021/12/17 03:48:31;;;;;;;4.20;1.80;;;23.60;50.80;;;;;;213979;1319;22580;-54
2021/12/17 03:53:35;;;;;;;3.90;1.80;;;23.70;50.90;;;;;;214411;1315;22653;-50
2021/12/17 03:58:39;;;;;;;4.20;1.80;;;23.70;50.90;;;;;;214361;1315;24973;-54
2021/12/17 04:03:43;;;;;;;4.00;2.00;;;23.70;50.90;;;;;;214365;1315;22615;-52
2021/12/17 04:08:57;;;;;;;4.40;1.80;;;23.70;50.90;;;;;;214314;1314;22643;-53
2021/12/17 04:14:07;;;;;;;6.30;2.30;;;23.80;51.00;;;;;;214345;1314;23224;-52
2021/12/17 04:19:22;;;;;;;4.70;1.70;;;23.70;50.90;;;;;;214447;1315;25482;-52
2021/12/17 04:24:26;;;;;;;2.80;1.60;;;23.70;51.40;;;;;;214228;1318;22593;-52
2021/12/17 04:29:29;;;;;;;4.20;1.90;;;23.60;51.10;;;;;;214359;1316;24307;-53
2021/12/17 04:34:33;;;;;;;4.00;1.60;;;23.70;51.00;;;;;;214186;1318;24343;-53
2021/12/17 04:39:38;;;;;;;3.90;1.80;;;23.60;51.00;;;;;;214352;1315;22582;-53
2021/12/17 04:44:49;;;;;;;3.90;1.80;;;23.60;51.10;;;;;;214515;1315;22573;-53
2021/12/17 05:00:37;;;;;;;4.30;1.70;;;23.60;50.90;;;;;;214364;1315;22571;-52
2021/12/17 05:05:48;;;;;;;3.10;1.70;;;23.60;50.70;;;;;;214190;1315;24333;-53
2021/12/17 05:21:44;;;;;;;3.40;1.70;;;23.70;50.80;;;;;;214744;1315;23434;-52
2021/12/17 05:26:48;;;;;;;3.00;1.40;;;23.70;50.70;;;;;;214541;1310;22587;-52
2021/12/17 05:31:52;;;;;;;4.10;1.90;;;23.60;50.60;;;;;;214453;1309;22770;-51
2021/12/17 05:36:56;;;;;;;3.90;1.90;;;23.60;50.70;;;;;;214409;1314;22554;-54
2021/12/17 05:42:03;;;;;;;3.90;1.70;;;23.60;50.70;;;;;;214397;1316;26905;-54
2021/12/17 05:47:16;;;;;;;3.40;1.60;;;23.60;50.80;;;;;;214340;1316;22639;-53
2021/12/17 05:52:20;;;;;;;4.10;1.50;;;23.60;50.70;;;;;;214304;1318;24380;-50
2021/12/17 05:57:25;;;;;;;2.60;1.50;;;23.60;50.70;;;;;;214507;1315;22593;-50
2021/12/17 06:02:29;;;;;;;4.90;1.60;;;23.60;50.80;;;;;;214319;1312;22580;-55
2021/12/17 06:07:39;;;;;;;3.20;1.60;;;23.60;50.90;;;;;;213821;1318;25355;-51
2021/12/17 06:12:47;;;;;;;2.80;1.50;;;23.60;51.00;;;;;;214349;1312;24472;-50
2021/12/17 06:17:52;;;;;;;3.90;1.50;;;23.60;50.50;;;;;;214569;1316;23253;-52
2021/12/17 06:22:56;;;;;;;2.50;1.50;;;23.60;50.50;;;;;;214288;1309;24355;-54
2021/12/17 06:28:00;;;;;;;2.80;1.60;;;23.70;50.40;;;;;;214512;1309;22602;-51
2021/12/17 06:33:04;;;;;;;3.20;1.70;;;23.70;50.50;;;;;;214479;1315;25314;-52
2021/12/17 06:38:08;;;;;;;6.70;1.90;;;23.60;50.60;;;;;;214384;1313;23167;-53
2021/12/17 06:43:13;;;;;;;4.80;1.60;;;23.60;51.00;;;;;;214433;1317;22712;-51
2021/12/17 06:48:21;;;;;;;5.00;1.50;;;23.60;50.90;;;;;;214699;1314;22589;-55
2021/12/17 06:59:34;;;;;;;4.80;1.90;;;23.60;51.50;;;;;;214299;1309;25425;-54
2021/12/17 07:10:49;;;;;;;5.10;2.20;;;23.60;51.70;;;;;;214088;1311;25545;-54
2021/12/17 07:21:37;;;;;;;10.40;1.60;;;23.60;51.90;;;;;;214158;1316;24712;-52
2021/12/17 07:42:17;;;;;;;11.80;2.20;;;23.70;51.80;;;;;;213226;1318;24272;-53
2021/12/17 07:47:43;;;;;;;8.70;1.60;;;23.50;52.20;;;;;;214384;1316;26542;-53
2021/12/17 07:53:06;;;;;;;12.00;2.20;;;23.40;53.20;;;;;;213659;1317;23223;-55
2021/12/17 07:58:21;;;;;;;10.00;2.30;;;23.20;53.10;;;;;;214339;1316;25457;-51
2021/12/17 08:03:25;;;;;;;10.10;2.20;;;23.00;53.80;;;;;;213602;1312;22597;-51
2021/12/17 08:08:35;;;;;;;9.20;2.20;;;23.00;53.30;;;;;;214272;1315;25338;-52
2021/12/17 08:14:09;;;;;;;;;;;22.70;53.60;;;;;;214453;1309;24737;-54
2021/12/17 08:29:53;;;;;;;6.00;1.80;;;22.80;53.80;;;;;;214030;1309;22657;-52
2021/12/17 08:34:59;;;;;;;8.30;2.00;;;22.70;53.70;;;;;;214189;1316;23128;-53
2021/12/17 08:40:05;;;;;;;4.90;1.80;;;22.70;53.60;;;;;;214339;1316;22577;-50
2021/12/17 08:45:14;;;;;;;9.20;2.00;;;22.60;53.50;;;;;;214276;1316;22579;-54
2021/12/17 08:50:24;;;;;;;6.00;1.60;;;22.60;53.60;;;;;;214300;1315;23229;-50
2021/12/17 08:55:28;;;;;;;5.70;2.00;;;22.60;53.60;;;;;;214116;1312;24325;-55
2021/12/17 09:00:32;;;;;;;6.70;1.90;;;22.60;53.70;;;;;;214201;1310;25611;-53
2021/12/17 09:05:41;;;;;;;4.50;1.50;;;22.50;53.80;;;;;;213914;1316;390309;-54
2021/12/17 09:10:51;;;;;;;5.70;1.80;;;22.50;53.90;;;;;;214353;1315;24408;-52
2021/12/17 09:16:06;;;;;;;10.20;2.00;;;22.40;54.00;;;;;;214370;1315;24130;-55
2021/12/17 09:21:15;;;;;;;4.60;1.70;;;22.30;53.90;;;;;;214240;1314;22560;-54
2021/12/17 09:26:36;;;;;;;5.40;2.00;;;22.20;52.90;;;;;;213714;1309;24245;-55
2021/12/17 09:31:44;;;;;;;6.60;2.20;;;22.30;53.10;;;;;;214202;1312;22767;-55
2021/12/17 09:36:56;;;;;;;;;;;22.60;52.80;;;;;;214407;1316;22672;-52
2021/12/17 09:42:02;;;;;;;5.30;1.60;;;22.80;51.80;;;;;;214150;1315;25251;-51
2021/12/17 09:47:07;;;;;;;6.40;2.00;;;22.90;51.50;;;;;;214388;1314;22593;-53
2021/12/17 09:52:13;;;;;;;5.00;1.80;;;23.00;51.20;;;;;;214337;1314;24405;-57
2021/12/17 09:57:21;;;;;;;4.90;1.80;;;23.00;51.20;;;;;;214306;1315;22636;-53
2021/12/17 10:02:25;;;;;;;4.40;1.90;;;23.00;51.00;;;;;;214474;1315;22574;-56
2021/12/17 10:07:31;;;;;;;6.10;1.70;;;23.10;51.10;;;;;;214422;1315;24322;-53
2021/12/17 10:12:39;;;;;;;3.80;1.60;;;23.10;50.90;;;;;;214395;1317;25569;-55
2021/12/17 10:17:58;;;;;;;4.80;1.90;;;23.00;50.80;;;;;;214338;1315;22661;-53
2021/12/17 10:23:11;;;;;;;5.70;1.80;;;23.00;51.20;;;;;;214371;1316;24384;-60
2021/12/17 10:28:17;;;;;;;3.10;1.40;;;23.00;50.80;;;;;;214555;1315;24338;-56
2021/12/17 10:33:24;;;;;;;5.60;1.60;;;23.00;50.80;;;;;;214396;1315;25502;-55
2021/12/17 10:38:28;;;;;;;3.70;1.50;;;23.00;50.80;;;;;;214352;1316;25197;-52
2021/12/17 10:43:46;;;;;;;3.90;1.60;;;23.00;50.70;;;;;;214467;1316;22570;-53
2021/12/17 10:49:00;;;;;;;6.70;1.80;;;23.00;50.50;;;;;;214453;1315;25450;-51
2021/12/17 10:54:09;;;;;;;5.90;1.80;;;23.00;50.80;;;;;;214423;1315;24836;-51
2021/12/17 10:59:26;;;;;;;7.00;1.70;;;23.10;50.60;;;;;;214468;1315;23248;-54
2021/12/17 11:04:35;;;;;;;7.00;1.90;;;23.10;50.60;;;;;;214311;1309;25567;-55
2021/12/17 11:09:45;;;;;;;6.00;1.80;;;23.10;51.00;;;;;;214282;1309;22652;-55
2021/12/17 11:14:50;;;;;;;4.20;1.40;;;23.10;51.50;;;;;;214255;1309;24314;-51
2021/12/17 11:19:55;;;;;;;5.90;1.50;;;23.10;51.50;;;;;;214280;1309;22670;-54
2021/12/17 11:25:03;;;;;;;4.20;1.50;;;23.10;51.90;;;;;;214233;1315;25516;-52
2021/12/17 11:30:16;;;;;;;4.70;1.70;;;23.10;52.10;;;;;;214296;1316;26540;-51
2021/12/17 11:35:26;;;;;;;4.10;1.50;;;23.10;51.60;;;;;;214132;1311;22610;-53
2021/12/17 11:40:34;;;;;;;3.10;1.30;;;23.10;52.30;;;;;;214317;1309;24407;-53
2021/12/17 11:45:37;;;;;;;5.30;1.80;;;23.10;52.50;;;;;;214431;1317;22564;-50
2021/12/17 11:50:41;;;;;;;3.80;1.70;;;23.10;52.70;;;;;;214300;1313;22637;-58
2021/12/17 11:55:48;;;;;;;3.90;1.60;;;23.10;52.70;;;;;;214252;1311;26643;-50
2021/12/17 12:00:52;;;;;;;3.20;1.60;;;23.10;52.30;;;;;;214218;1309;25338;-54
2021/12/17 12:05:58;;;;;;;3.60;1.70;;;23.20;53.20;;;;;;213992;1317;23313;-51
2021/12/17 12:11:06;;;;;;;5.00;1.50;;;23.10;52.90;;;;;;214205;1312;24289;-51
2021/12/17 12:16:15;;;;;;;2.40;1.30;;;23.10;53.10;;;;;;214278;1315;22723;-56
2021/12/17 12:21:21;;;;;;;2.60;1.50;;;23.20;53.50;;;;;;214159;1315;22582;-54
2021/12/17 12:26:37;;;;;;;3.30;1.70;;;23.20;53.30;;;;;;214113;1312;26058;-54
2021/12/17 12:31:52;;;;;;;4.90;1.70;;;23.10;53.30;;;;;;214015;1313;24298;-54
2021/12/17 12:37:00;;;;;;;3.70;2.00;;;23.20;53.40;;;;;;214132;1316;26527;-52
2021/12/17 12:42:28;;;;;;;6.10;1.40;;;23.20;52.70;;;;;;214316;1317;25602;-51
2021/12/17 12:47:54;;;;;;;3.40;1.50;;;23.20;53.70;;;;;;214206;1317;25651;-51
2021/12/17 12:53:53;;;;;;;3.70;1.70;;;23.20;53.90;;;;;;213648;1311;22898;-54
2021/12/17 12:59:31;;;;;;;3.80;1.70;;;23.10;54.30;;;;;;214175;1310;25653;-51
2021/12/17 13:05:01;;;;;;;3.00;1.50;;;23.10;54.50;;;;;;214212;1312;22548;-49
2021/12/17 13:10:44;;;;;;;3.90;1.60;;;23.10;54.90;;;;;;214204;1314;22554;-54
2021/12/17 13:16:34;;;;;;;3.50;1.50;;;23.20;54.90;;;;;;213086;1315;22660;-52
2021/12/17 13:22:43;;;;;;;3.40;1.40;;;23.20;55.00;;;;;;213628;1314;24326;-50
2021/12/17 13:27:57;;;;;;;2.90;1.40;;;23.20;55.10;;;;;;213967;1310;22769;-52
2021/12/17 13:33:13;;;;;;;2.80;1.40;;;23.10;55.50;;;;;;214301;1309;25767;-51
2021/12/17 13:39:04;;;;;;;2.50;1.40;;;23.20;55.50;;;;;;214113;1312;25297;-53
2021/12/17 13:44:37;;;;;;;2.90;1.30;;;23.20;55.60;;;;;;214284;1313;25591;-55
2021/12/17 13:50:01;;;;;;;2.90;1.50;;;23.20;55.90;;;;;;214255;1312;24384;-51
2021/12/17 13:55:18;;;;;;;3.80;1.50;;;23.30;55.60;;;;;;214289;1309;22660;-51
2021/12/17 14:00:42;;;;;;;4.20;1.60;;;23.20;55.60;;;;;;214315;1314;22595;-53
2021/12/17 14:06:01;;;;;;;2.00;1.20;;;23.20;55.80;;;;;;214358;1315;22792;-54
2021/12/17 14:11:25;;;;;;;2.80;1.30;;;23.20;56.10;;;;;;214009;1315;24303;-54
2021/12/17 14:17:02;;;;;;;3.80;1.40;;;23.30;55.80;;;;;;214311;1312;24260;-55
2021/12/17 14:22:29;;;;;;;3.20;1.30;;;23.30;56.10;;;;;;214393;1312;22790;-53
2021/12/17 14:27:47;;;;;;;5.00;1.40;;;23.20;55.90;;;;;;214314;1315;24313;-51
2021/12/17 14:32:51;;;;;;;4.40;1.90;;;23.20;55.80;;;;;;214410;1316;22577;-52
2021/12/17 14:37:55;;;;;;;2.90;1.40;;;23.20;55.50;;;;;;214108;1312;22670;-50
2021/12/17 14:43:01;;;;;;;2.80;1.50;;;23.30;55.60;;;;;;214278;1317;22562;-52
2021/12/17 14:48:26;;;;;;;2.40;1.40;;;23.20;56.00;;;;;;214201;1317;22610;-52
2021/12/17 15:04:34;;;;;;;3.00;1.60;;;23.30;55.70;;;;;;214282;1315;22570;-55
2021/12/17 15:09:42;;;;;;;3.60;1.70;;;23.20;55.60;;;;;;214457;1315;22687;-52
2021/12/17 15:15:09;;;;;;;3.30;1.60;;;23.20;55.60;;;;;;214427;1316;22693;-53
2021/12/17 15:20:18;;;;;;;3.70;1.60;;;23.20;55.60;;;;;;214385;1316;22808;-51
2021/12/17 15:25:23;;;;;;;2.30;1.40;;;23.30;55.50;;;;;;214442;1316;24252;-54
2021/12/17 15:30:39;;;;;;;2.30;1.40;;;23.30;55.80;;;;;;214431;1316;23985;-51
2021/12/17 15:35:52;;;;;;;3.80;1.40;;;23.30;55.90;;;;;;214333;1315;22958;-52
2021/12/17 15:40:55;;;;;;;3.60;1.30;;;23.20;55.60;;;;;;214409;1316;22570;-52
2021/12/17 15:45:59;;;;;;;3.50;1.70;;;23.30;55.50;;;;;;214275;1316;22669;-55
2021/12/17 15:51:04;;;;;;;4.80;1.50;;;23.20;55.50;;;;;;214306;1316;23963;-55
2021/12/17 15:56:08;;;;;;;7.20;1.70;;;23.20;55.70;;;;;;214279;1316;26550;-50
2021/12/17 16:01:30;;;;;;;14.50;1.90;;;23.30;55.70;;;;;;214398;1316;23016;-52
2021/12/17 16:06:38;;;;;;;7.00;2.10;;;23.20;56.30;;;;;;214232;1318;22590;-53
2021/12/17 16:12:10;;;;;;;8.80;2.00;;;23.10;56.10;;;;;;214319;1316;22554;-56
2021/12/17 16:22:48;;;;;;;6.80;2.20;;;22.90;57.50;;;;;;214184;1318;22672;-52
2021/12/17 16:27:52;;;;;;;11.60;2.10;;;23.00;56.80;;;;;;214148;1316;25494;-54
2021/12/17 16:32:56;;;;;;;7.40;2.20;;;22.80;57.00;;;;;;214254;1319;25936;-56
2021/12/17 16:38:20;;;;;;;9.80;2.50;;;22.80;56.90;;;;;;214219;1312;25287;-56
2021/12/17 16:43:43;;;;;;;12.20;2.30;;;22.80;57.20;;;;;;214408;1317;26654;-53
2021/12/17 16:48:55;;;;;;;5.20;2.00;;;22.40;58.40;;;;;;214068;1313;22831;-57
2021/12/17 16:54:01;;;;;;;7.40;2.00;;;22.40;59.10;;;;;;214215;1310;25579;-57
2021/12/17 16:59:07;;;;;;;12.70;2.50;;;22.30;59.10;;;;;;213722;1314;22577;-56
2021/12/17 17:04:15;;;;;;;10.70;2.20;;;22.20;59.20;;;;;;213787;1309;417948;-55
2021/12/17 17:09:20;;;;;;;11.60;2.50;;;22.30;59.40;;;;;;214274;1312;22577;-56
2021/12/17 17:14:34;;;;;;;6.40;2.10;;;22.30;60.30;;;;;;213889;1310;22601;-55
2021/12/17 17:19:45;;;;;;;8.90;2.80;;;22.20;60.40;;;;;;214481;1312;22619;-55
2021/12/17 17:24:48;;;;;;;10.70;2.40;;;22.20;60.20;;;;;;214102;1315;22596;-57
2021/12/17 17:29:54;;;;;;;8.40;2.10;;;22.30;60.00;;;;;;214190;1312;24276;-55
2021/12/17 17:35:09;;;;;;;6.10;1.80;;;22.30;59.60;;;;;;213884;1313;25345;-53
2021/12/17 17:40:14;;;;;;;7.70;2.20;;;22.40;59.60;;;;;;214120;1312;22590;-54
2021/12/17 17:45:18;;;;;;;9.00;2.90;;;22.40;59.00;;;;;;214143;1309;22813;-55
2021/12/17 17:50:26;;;;;;;7.80;2.20;;;22.40;58.60;;;;;;214120;1309;22609;-54
2021/12/17 17:55:45;;;;;;;7.50;2.30;;;22.60;58.10;;;;;;213977;1314;24323;-55
2021/12/17 18:00:58;;;;;;;9.20;2.30;;;22.60;57.80;;;;;;214211;1309;24053;-54
2021/12/17 18:06:06;;;;;;;5.80;2.50;;;22.70;57.60;;;;;;214213;1314;25549;-53
2021/12/17 18:11:12;;;;;;;8.10;3.80;;;22.60;57.10;;;;;;214101;1309;24251;-54
2021/12/17 18:16:24;;;;;;;11.00;4.10;;;22.40;59.80;;;;;;214215;1309;22581;-51
2021/12/17 18:21:28;;;;;;;14.80;3.70;;;22.40;61.40;;;;;;214226;1309;26509;-56
2021/12/17 18:26:31;;;;;;;13.00;3.50;;;22.30;60.90;;;;;;214359;1314;25461;-53
2021/12/17 18:31:41;;;;;;;9.30;3.20;;;22.30;60.50;;;;;;214632;1309;22607;-51
2021/12/17 18:36:45;;;;;;;11.50;3.90;;;22.20;60.10;;;;;;214386;1314;24323;-55
2021/12/17 18:47:20;;;;;;;9.50;3.20;;;22.20;60.00;;;;;;214393;1313;22610;-53
2021/12/17 18:52:29;;;;;;;11.20;3.20;;;22.10;59.90;;;;;;214168;1311;23130;-54
2021/12/17 18:57:46;;;;;;;8.50;2.50;;;22.10;59.80;;;;;;214111;1309;26451;-55
2021/12/17 19:02:50;;;;;;;11.70;3.30;;;22.00;59.80;;;;;;214211;1309;25334;-54
2021/12/17 19:07:56;;;;;;;8.20;2.80;;;21.90;59.60;;;;;;214428;1309;22604;-53
2021/12/17 19:13:06;;;;;;;7.60;2.70;;;21.90;59.40;;;;;;214335;1313;25237;-52
2021/12/17 19:18:18;;;;;;;5.90;2.70;;;22.00;59.00;;;;;;214552;1310;22664;-53
2021/12/17 19:23:26;;;;;;;5.10;2.30;;;22.20;58.30;;;;;;214169;1312;22569;-52
2021/12/17 19:28:33;;;;;;;6.60;2.90;;;22.40;57.50;;;;;;214356;1309;23094;-54
2021/12/17 19:33:38;;;;;;;11.10;2.80;;;22.10;58.30;;;;;;214264;1314;24341;-55
2021/12/17 19:38:43;;;;;;;9.70;3.30;;;21.80;58.80;;;;;;214444;1309;24762;-55
2021/12/17 19:43:50;;;;;;;7.30;2.60;;;21.80;58.90;;;;;;213884;1311;25961;-54
2021/12/17 19:54:17;;;;;;;80.70;42.10;;;21.80;60.70;;;;;;214389;1316;25544;-56
2021/12/17 19:59:22;;;;;;;58.30;27.70;;;21.80;64.00;;;;;;214338;1318;25423;-53
2021/12/17 20:04:29;;;;;;;59.60;26.70;;;21.90;65.40;;;;;;214534;1309;25252;-52
2021/12/17 20:09:33;;;;;;;53.30;26.40;;;22.00;65.50;;;;;;214516;1314;24247;-55
2021/12/17 20:14:42;;;;;;;46.90;21.40;;;22.10;66.00;;;;;;214563;1315;22571;-53
2021/12/17 20:19:56;;;;;;;42.10;19.70;;;22.10;65.00;;;;;;214550;1316;22730;-53
2021/12/17 20:25:10;;;;;;;46.40;17.50;;;22.10;64.50;;;;;;214533;1316;25544;-52
2021/12/17 20:30:19;;;;;;;33.80;16.90;;;22.00;64.50;;;;;;214501;1316;22573;-59
2021/12/17 20:35:28;;;;;;;35.60;16.10;;;21.90;63.80;;;;;;214502;1316;22582;-53
2021/12/17 20:40:34;;;;;;;36.50;15.00;;;21.90;63.40;;;;;;214592;1316;26537;-56
2021/12/17 20:45:38;;;;;;;26.40;13.60;;;22.10;63.30;;;;;;214478;1315;22587;-53
2021/12/17 20:50:45;;;;;;;25.30;13.70;;;22.00;62.10;;;;;;214721;1316;24242;-51
2021/12/17 20:55:53;;;;;;;26.60;12.70;;;22.00;61.60;;;;;;214413;1314;24323;-52
2021/12/17 21:01:00;;;;;;;22.60;11.60;;;22.10;61.70;;;;;;214137;1318;25438;-53
2021/12/17 21:06:10;;;;;;;26.80;11.30;;;22.10;62.10;;;;;;214416;1316;25332;-54
2021/12/17 21:11:13;;;;;;;28.10;10.90;;;22.00;62.00;;;;;;214858;1309;23091;-54
2021/12/17 21:16:18;;;;;;;25.70;11.30;;;22.00;61.60;;;;;;214276;1309;22590;-55
2021/12/17 21:21:22;;;;;;;27.40;11.00;;;21.90;61.60;;;;;;214416;1309;22581;-53
2021/12/17 21:26:26;;;;;;;26.20;9.70;;;21.90;61.60;;;;;;214505;1309;22562;-54
2021/12/17 21:31:33;;;;;;;22.10;10.00;;;22.00;62.10;;;;;;214379;1309;25297;-52
2021/12/17 21:36:38;;;;;;;19.70;9.30;;;22.00;62.70;;;;;;214507;1313;22584;-51
2021/12/17 21:41:41;;;;;;;18.50;10.10;;;22.00;62.70;;;;;;214464;1309;22608;-50
2021/12/17 21:46:45;;;;;;;19.10;9.60;;;22.00;62.60;;;;;;214619;1316;23057;-51
2021/12/17 21:51:49;;;;;;;18.00;9.20;;;22.00;62.30;;;;;;214356;1316;22814;-56
2021/12/17 21:56:59;;;;;;;17.50;8.50;;;22.00;62.80;;;;;;214053;1312;22600;-52
2021/12/17 22:02:04;;;;;;;21.60;8.90;;;22.00;62.30;;;;;;214390;1314;25387;-53
2021/12/17 22:07:08;;;;;;;16.80;8.40;;;22.00;62.60;;;;;;214208;1309;22591;-53
2021/12/17 22:12:13;;;;;;;16.30;8.50;;;22.00;62.10;;;;;;214373;1309;25613;-57
2021/12/17 22:17:17;;;;;;;17.50;8.10;;;22.10;62.00;;;;;;214398;1309;22766;-54
2021/12/17 22:22:29;;;;;;;12.90;7.10;;;22.00;61.70;;;;;;214532;1312;25284;-55
2021/12/17 22:27:33;;;;;;;17.30;7.10;;;22.00;61.70;;;;;;213790;1312;24440;-55
2021/12/17 22:32:36;;;;;;;12.90;7.10;;;22.00;61.70;;;;;;214578;1312;26498;-54
2021/12/17 22:37:44;;;;;;;15.80;7.50;;;22.00;61.60;;;;;;214254;1309;22574;-53
2021/12/17 22:42:48;;;;;;;14.60;6.70;;;22.10;61.40;;;;;;214212;1309;22603;-53
2021/12/17 22:47:53;;;;;;;15.50;6.80;;;22.10;61.20;;;;;;214514;1309;22570;-54
2021/12/17 22:52:57;;;;;;;14.50;6.70;;;22.10;61.30;;;;;;214300;1309;25352;-54
2021/12/17 22:58:03;;;;;;;14.20;6.40;;;22.10;61.50;;;;;;214259;1309;24325;-52
2021/12/17 23:03:07;;;;;;;11.40;5.80;;;22.10;60.90;;;;;;214234;1309;25607;-53
2021/12/17 23:08:14;;;;;;;14.90;6.50;;;22.20;60.80;;;;;;214409;1309;24369;-53
2021/12/17 23:13:19;;;;;;;13.90;5.90;;;22.20;60.70;;;;;;214256;1312;25367;-52
2021/12/17 23:18:23;;;;;;;12.30;6.50;;;22.20;61.20;;;;;;213926;1311;22680;-53
2021/12/17 23:23:27;;;;;;;15.70;6.00;;;22.20;60.60;;;;;;215066;1309;22657;-53
2021/12/17 23:28:30;;;;;;;11.40;5.50;;;22.10;61.10;;;;;;214438;1309;22635;-53
2021/12/17 23:38:43;;;;;;;8.90;5.30;;;22.10;60.30;;;;;;214445;1309;23949;-51
2021/12/17 23:43:49;;;;;;;15.20;5.70;;;22.20;60.40;;;;;;214703;1309;24451;-50
2021/12/17 23:48:53;;;;;;;10.10;5.20;;;22.20;59.90;;;;;;214712;1309;24327;-55
2021/12/17 23:54:01;;;;;;;8.30;4.80;;;22.10;60.00;;;;;;214158;1309;22636;-55
2021/12/17 23:59:05;;;;;;;8.60;4.80;;;22.10;60.20;;;;;;214341;1309;25348;-54
